Time;durP1;ratioP1;P1;durP2;ratioP2;P2;SDS_P1;SDS_P2;PMS_P1;PMS_P2;Temp;Humidity;BMP_temperature;BMP_pressure;BME280_temperature;BME280_humidity;BME280_pressure;Samples;Min_cycle;Max_cycle;Signal;HPM_P1;HPM_P2
2022/03/07 00:01:44;;;;;;;15.53;7.93;;;;;;;-3.15;80.01;100221.54;1715507;82;21458;-65
2022/03/07 00:04:14;;;;;;;13.20;7.73;;;;;;;-3.17;80.15;100213.84;1682934;84;21365;-65
2022/03/07 00:06:39;;;;;;;13.20;7.45;;;;;;;-3.21;80.11;100214.64;1702283;82;21067;-65
2022/03/07 00:09:06;;;;;;;14.33;9.60;;;;;;;-3.24;80.06;100206.08;1720245;82;21013;-65
2022/03/07 00:11:32;;;;;;;17.45;8.98;;;;;;;-3.25;80.16;100213.27;1718005;82;21032;-66
2022/03/07 00:13:59;;;;;;;12.53;6.95;;;;;;;-3.26;80.16;100215.40;1688578;83;21115;-65
2022/03/07 00:16:26;;;;;;;13.70;7.22;;;;;;;-3.27;80.25;100216.24;1718596;82;20951;-65
2022/03/07 00:18:52;;;;;;;13.97;7.13;;;;;;;-3.27;80.30;100214.55;1717426;82;20970;-65
2022/03/07 00:21:21;;;;;;;18.48;13.53;;;;;;;-3.28;80.28;100217.06;1692743;84;21078;-65
2022/03/07 00:23:48;;;;;;;14.10;8.80;;;;;;;-3.29;80.35;100216.63;1713421;83;20954;-65
2022/03/07 00:26:17;;;;;;;13.15;7.58;;;;;;;-3.28;80.46;100215.36;1706351;82;22070;-65
2022/03/07 00:28:45;;;;;;;13.60;7.30;;;;;;;-3.31;80.38;100212.76;1673644;84;20998;-65
2022/03/07 00:31:13;;;;;;;15.60;7.45;;;;;;;-3.33;80.40;100213.56;1715241;82;21026;-65
2022/03/07 00:33:40;;;;;;;15.28;9.20;;;;;;;-3.35;80.48;100207.59;1705976;82;21574;-66
2022/03/07 00:36:07;;;;;;;;;;;;;;;-3.35;80.63;100213.55;1710135;82;20987;-65
2022/03/07 00:38:34;;;;;;;11.77;7.63;;;;;;;-3.34;80.63;100208.02;1707695;82;21107;-65
2022/03/07 00:41:01;;;;;;;14.15;8.25;;;;;;;-3.39;80.57;100202.44;1708093;82;21356;-65
2022/03/07 00:43:28;;;;;;;;;;;;;;;-3.39;80.66;100197.33;1708985;82;21563;-65
2022/03/07 00:45:55;;;;;;;17.35;8.65;;;;;;;-3.40;80.60;100199.84;1707628;82;20210;-65
2022/03/07 00:48:22;;;;;;;19.05;9.73;;;;;;;-3.42;80.66;100192.17;1706939;82;21010;-66
2022/03/07 00:50:55;;;;;;;18.05;10.30;;;;;;;-3.42;80.65;100194.73;1718558;81;21500;-65
2022/03/07 00:53:26;;;;;;;22.32;10.63;;;;;;;-3.41;80.62;100196.44;1711091;81;21501;-65
2022/03/07 00:55:54;;;;;;;22.80;10.35;;;;;;;-3.38;80.66;100181.16;1714491;82;21002;-66
2022/03/07 00:58:23;;;;;;;25.68;12.58;;;;;;;-3.33;80.85;100185.47;1707316;82;21045;-65
2022/03/07 01:00:50;;;;;;;23.80;11.68;;;;;;;-3.23;80.98;100177.98;1686283;83;21084;-65
2022/03/07 01:03:19;;;;;;;23.52;11.10;;;;;;;-3.10;81.07;100181.61;1707826;82;22266;-65
2022/03/07 01:05:47;;;;;;;20.00;11.43;;;;;;;-2.99;81.19;100162.19;1709399;82;21626;-65
2022/03/07 01:08:13;;;;;;;;;;;;;;;-2.88;81.28;100166.60;1720208;82;21010;-65
2022/03/07 01:10:40;;;;;;;14.23;9.78;;;;;;;-2.76;81.45;100161.66;1712191;82;20171;-65
2022/03/07 01:13:08;;;;;;;13.18;9.48;;;;;;;-2.65;81.56;100157.54;1715880;82;20950;-65
2022/03/07 01:15:34;;;;;;;12.65;9.00;;;;;;;-2.54;81.64;100148.31;1706975;82;21454;-65
2022/03/07 01:18:02;;;;;;;15.90;9.98;;;;;;;-2.43;81.62;100151.44;1676918;83;21604;-65
2022/03/07 01:20:29;;;;;;;;;;;;;;;-2.33;81.75;100153.23;1717490;82;21075;-66
2022/03/07 01:22:55;;;;;;;12.07;9.30;;;;;;;-2.26;81.76;100144.81;1716504;82;21266;-65
2022/03/07 01:25:22;;;;;;;10.63;8.43;;;;;;;-2.23;81.67;100135.89;1707517;82;21026;-65
2022/03/07 01:27:49;;;;;;;13.37;9.50;;;;;;;-2.18;81.67;100134.67;1715514;82;22290;-66
2022/03/07 01:30:16;;;;;;;20.17;9.10;;;;;;;-2.10;81.75;100130.47;1714953;82;20970;-66
2022/03/07 01:32:42;;;;;;;11.77;8.00;;;;;;;-2.01;81.93;100124.19;1707734;82;21018;-65
2022/03/07 01:35:09;;;;;;;13.73;8.57;;;;;;;-1.96;81.83;100125.48;1714712;82;21064;-66
2022/03/07 01:37:36;;;;;;;13.15;8.85;;;;;;;-1.91;81.97;100122.56;1707825;82;21085;-65
2022/03/07 01:40:05;;;;;;;12.67;8.13;;;;;;;-1.89;81.85;100118.32;1717318;82;21889;-66
2022/03/07 01:42:32;;;;;;;9.23;6.50;;;;;;;-1.88;81.86;100118.75;1689026;84;21277;-66
2022/03/07 01:45:14;;;;;;;7.95;5.83;;;;;;;-1.87;81.84;100115.36;1708262;82;21093;-66
2022/03/07 01:47:42;;;;;;;10.35;7.00;;;;;;;-1.87;81.91;100114.08;1694374;83;20932;-65
2022/03/07 01:50:13;;;;;;;7.83;6.37;;;;;;;-1.85;81.98;100114.94;1695160;83;21171;-65
2022/03/07 01:52:44;;;;;;;9.95;6.33;;;;;;;-1.84;81.89;100108.99;1720241;82;21097;-65
2022/03/07 01:55:12;;;;;;;6.75;5.55;;;;;;;-1.84;81.95;100114.11;1720123;82;20958;-65
2022/03/07 01:57:43;;;;;;;6.37;5.22;;;;;;;-1.80;82.08;100118.40;1718862;81;21056;-65
2022/03/07 02:00:24;;;;;;;9.33;5.85;;;;;;;-1.85;81.88;100118.77;1691849;83;21036;-65
2022/03/07 02:02:51;;;;;;;11.05;6.47;;;;;;;-1.96;81.89;100121.66;1707923;82;21049;-65
2022/03/07 02:05:18;;;;;;;13.22;6.90;;;;;;;-2.04;81.99;100113.50;1703749;82;21942;-65
2022/03/07 02:07:45;;;;;;;13.67;7.60;;;;;;;-2.06;82.17;100116.45;1712881;82;20989;-65
2022/03/07 02:10:13;;;;;;;11.80;7.10;;;;;;;-1.99;82.42;100113.95;1701969;82;21064;-65
2022/03/07 02:12:39;;;;;;;;;;;;;;;-1.90;82.55;100111.50;1676976;84;20982;-65
2022/03/07 02:15:08;;;;;;;12.82;6.67;;;;;;;-1.81;82.70;100104.75;1677208;84;20120;-65
2022/03/07 02:17:36;;;;;;;10.72;7.03;;;;;;;-1.74;82.65;100108.20;1695477;83;21127;-65
2022/03/07 02:20:05;;;;;;;11.08;6.30;;;;;;;-1.67;82.71;100097.19;1705165;83;21161;-65
2022/03/07 02:22:32;;;;;;;11.00;6.92;;;;;;;-1.64;82.54;100102.33;1714791;82;21014;-65
2022/03/07 02:24:58;;;;;;;9.35;6.90;;;;;;;-1.61;82.57;100097.23;1706908;82;21097;-65
2022/03/07 02:27:25;;;;;;;13.28;7.28;;;;;;;-1.53;82.70;100096.45;1716578;82;21006;-65
2022/03/07 02:29:52;;;;;;;14.38;7.35;;;;;;;-1.46;82.86;100093.92;1705900;82;21539;-65
2022/03/07 02:32:20;;;;;;;14.33;7.53;;;;;;;-1.40;82.84;100098.23;1683829;83;21578;-65
2022/03/07 02:34:48;;;;;;;10.63;7.17;;;;;;;-1.34;82.83;100098.30;1709884;82;21501;-65
2022/03/07 02:37:15;;;;;;;16.50;7.00;;;;;;;-1.32;82.81;100097.86;1718768;80;20961;-65
2022/03/07 02:39:41;;;;;;;11.50;7.72;;;;;;;-1.30;82.77;100100.45;1708197;81;21493;-65
2022/03/07 02:42:09;;;;;;;11.20;7.00;;;;;;;-1.23;82.93;100098.34;1704386;82;21562;-65
2022/03/07 02:44:36;;;;;;;12.13;6.95;;;;;;;-1.22;82.79;100108.63;1702832;82;21185;-65
2022/03/07 02:47:03;;;;;;;15.13;7.90;;;;;;;-1.23;82.72;100104.36;1710253;82;20960;-65
2022/03/07 02:49:29;;;;;;;11.93;7.45;;;;;;;-1.25;82.76;100103.48;1704774;82;28252;-65
2022/03/07 02:51:56;;;;;;;9.65;7.08;;;;;;;-1.29;82.64;100114.53;1708973;82;20971;-65
2022/03/07 02:54:23;;;;;;;11.78;7.15;;;;;;;-1.40;82.54;100113.20;1711210;83;21131;-65
2022/03/07 02:56:50;;;;;;;11.20;6.75;;;;;;;-1.53;82.48;100110.11;1719755;82;21079;-65
2022/03/07 02:59:17;;;;;;;11.00;6.57;;;;;;;-1.73;82.62;100127.86;1705794;82;21046;-65
2022/03/07 03:01:44;;;;;;;12.87;6.87;;;;;;;-1.73;82.62;100127.86;1714696;82;22122;-65
2022/03/07 03:04:16;;;;;;;14.78;7.03;;;;;;;-1.82;82.86;100121.36;1708408;82;22025;-65
2022/03/07 03:06:42;;;;;;;10.15;7.10;;;;;;;-1.86;82.98;100119.63;1715472;82;22140;-65
2022/03/07 03:09:11;;;;;;;12.90;6.87;;;;;;;-1.93;82.90;100122.95;1707689;82;21018;-65
2022/03/07 03:11:37;;;;;;;12.23;7.47;;;;;;;-1.94;83.04;100123.81;1707294;82;21435;-65
2022/03/07 03:14:06;;;;;;;9.57;6.97;;;;;;;-1.96;83.10;100116.53;1707865;82;21014;-65
2022/03/07 03:16:33;;;;;;;12.30;6.55;;;;;;;-1.99;83.10;100111.39;1675292;85;21093;-65
2022/03/07 03:19:00;;;;;;;10.85;7.75;;;;;;;-2.05;82.96;100110.48;1711827;82;21171;-65
2022/03/07 03:21:27;;;;;;;10.82;7.40;;;;;;;;;;1710904;82;21556;-65
2022/03/07 03:23:53;;;;;;;12.55;7.45;;;;;;;-2.14;83.00;100114.66;1705988;82;21057;-65
2022/03/07 03:26:20;;;;;;;12.83;8.33;;;;;;;-2.21;83.03;100111.19;1715094;82;21060;-65
2022/03/07 03:28:47;;;;;;;13.00;8.40;;;;;;;-2.29;82.95;100113.66;1708133;82;21005;-65
2022/03/07 03:31:14;;;;;;;13.58;8.38;;;;;;;-2.33;83.08;100117.00;1713419;82;21731;-65
2022/03/07 03:33:42;;;;;;;17.37;9.17;;;;;;;-2.34;83.24;100122.12;1704887;82;21011;-65
2022/03/07 03:36:09;;;;;;;12.20;8.73;;;;;;;-2.36;83.22;100128.91;1685121;83;21609;-65
2022/03/07 03:38:35;;;;;;;12.85;8.95;;;;;;;-2.39;83.26;100128.87;1706097;82;21108;-65
2022/03/07 03:41:02;;;;;;;13.25;9.28;;;;;;;-2.45;83.17;100128.81;1678392;84;21548;-65
2022/03/07 03:43:29;;;;;;;46.33;22.55;;;;;;;-2.54;83.16;100138.08;1716001;82;21414;-65
2022/03/07 03:45:55;;;;;;;51.92;24.50;;;;;;;-2.61;83.15;100133.72;1715030;82;21608;-68
2022/03/07 03:48:22;;;;;;;33.57;19.87;;;;;;;-2.64;83.18;100126.44;1716938;82;21120;-65
2022/03/07 03:50:49;;;;;;;27.73;17.77;;;;;;;-2.70;83.08;100128.50;1717955;82;21016;-65
2022/03/07 03:53:15;;;;;;;26.27;15.27;;;;;;;-2.73;83.29;100128.46;1716753;82;21777;-65
2022/03/07 03:55:42;;;;;;;23.15;14.25;;;;;;;-2.73;83.51;100122.92;1689835;83;22274;-65
2022/03/07 03:58:09;;;;;;;26.82;15.10;;;;;;;-2.72;83.34;100128.89;1716527;82;21219;-65
2022/03/07 04:00:35;;;;;;;32.25;14.90;;;;;;;-2.74;83.22;100129.31;1714700;82;20951;-65
2022/03/07 04:03:02;;;;;;;28.73;15.53;;;;;;;-2.73;83.38;100129.73;1716668;82;21507;-65
2022/03/07 04:05:29;;;;;;;26.15;15.03;;;;;;;-2.70;83.38;100124.66;1716985;82;21052;-65
2022/03/07 04:07:56;;;;;;;34.10;15.97;;;;;;;-2.72;83.29;100114.83;1716292;82;22220;-65
2022/03/07 04:10:22;;;;;;;37.78;15.95;;;;;;;-2.71;83.30;100124.23;1714527;82;21289;-64
2022/03/07 04:12:49;;;;;;;31.73;16.50;;;;;;;-2.72;83.30;100122.50;1707587;82;21670;-65
2022/03/07 04:15:16;;;;;;;24.67;15.93;;;;;;;-2.76;83.29;100124.17;1703185;82;21003;-65
2022/03/07 04:17:44;;;;;;;23.62;14.95;;;;;;;-2.79;83.29;100118.16;1708235;82;20979;-65
2022/03/07 04:20:14;;;;;;;25.92;13.45;;;;;;;-2.79;83.35;100123.28;1706841;83;21125;-65
2022/03/07 04:22:41;;;;;;;19.50;12.00;;;;;;;-2.82;83.26;100118.13;1713263;83;21509;-65
2022/03/07 04:25:09;;;;;;;19.70;12.90;;;;;;;-2.87;83.27;100114.65;1705292;82;20972;-65
2022/03/07 04:27:37;;;;;;;17.30;11.75;;;;;;;-2.88;83.32;100115.07;1707272;82;20971;-65
2022/03/07 04:30:08;;;;;;;18.20;12.68;;;;;;;-2.89;83.32;100123.98;1703736;82;21566;-65
2022/03/07 04:32:37;;;;;;;22.05;12.10;;;;;;;-2.89;83.40;100120.15;1709794;82;21472;-65
2022/03/07 04:35:09;;;;;;;16.48;13.13;;;;;;;-2.88;83.43;100130.83;1706396;82;21026;-65
2022/03/07 04:37:39;;;;;;;18.73;13.90;;;;;;;-2.93;83.33;100127.77;1714591;82;21088;-65
2022/03/07 04:40:11;;;;;;;15.30;11.75;;;;;;;-2.99;83.29;100128.97;1710690;82;21015;-65
2022/03/07 04:42:39;;;;;;;15.75;11.48;;;;;;;-3.00;83.37;100132.34;1682439;84;21038;-65
2022/03/07 04:45:07;;;;;;;19.85;14.18;;;;;;;-3.05;83.36;100134.00;1695379;84;22323;-65
2022/03/07 04:47:34;;;;;;;17.98;12.43;;;;;;;-3.09;83.43;100137.33;1710622;82;21054;-65
2022/03/07 04:50:01;;;;;;;16.05;13.05;;;;;;;-3.11;83.46;100139.00;1709217;82;20946;-65
2022/03/07 04:52:28;;;;;;;15.88;12.23;;;;;;;-3.14;83.42;100133.84;1711373;82;21057;-65
2022/03/07 04:54:55;;;;;;;19.07;13.30;;;;;;;-3.20;83.47;100138.87;1706982;82;22310;-64
2022/03/07 04:57:22;;;;;;;21.73;14.57;;;;;;;-3.28;83.36;100130.23;1703427;82;21068;-65
2022/03/07 04:59:48;;;;;;;23.10;13.22;;;;;;;-3.54;83.34;100100.05;1705226;82;21468;-66
2022/03/07 05:02:15;;;;;;;18.30;13.70;;;;;;;-3.42;83.27;100138.56;1708637;82;21010;-65
2022/03/07 05:04:42;;;;;;;16.80;12.43;;;;;;;-3.50;83.24;100132.47;1706238;82;20955;-65
2022/03/07 05:07:09;;;;;;;19.00;13.78;;;;;;;-3.59;83.19;100134.84;1704527;82;22174;-65
2022/03/07 05:09:36;;;;;;;31.17;17.48;;;;;;;-3.65;83.22;100133.48;1703685;82;22221;-65
2022/03/07 05:12:04;;;;;;;23.47;14.90;;;;;;;-3.76;83.16;100128.61;1704345;82;21006;-65
2022/03/07 05:14:30;;;;;;;20.97;12.80;;;;;;;-3.83;83.27;100129.78;1706495;82;20931;-66
2022/03/07 05:16:57;;;;;;;22.55;13.10;;;;;;;-3.86;83.31;100137.39;1706716;82;21004;-65
2022/03/07 05:19:24;;;;;;;32.60;21.00;;;;;;;-3.89;83.24;100142.44;1704760;82;21623;-65
2022/03/07 05:21:50;;;;;;;36.43;24.00;;;;;;;-3.92;83.36;100141.12;1705465;82;22007;-65
2022/03/07 05:24:18;;;;;;;25.08;17.25;;;;;;;-3.92;83.43;100146.22;1710985;82;21650;-65
2022/03/07 05:26:44;;;;;;;19.57;13.40;;;;;;;-3.93;83.43;100138.10;1708601;82;21001;-65
2022/03/07 05:29:11;;;;;;;20.15;13.10;;;;;;;-3.92;83.47;100143.66;1705099;82;21041;-65
2022/03/07 05:31:38;;;;;;;24.65;16.35;;;;;;;-3.95;83.53;100133.41;1704851;82;21006;-65
2022/03/07 05:34:05;;;;;;;20.00;14.15;;;;;;;-3.96;83.46;100145.70;1706043;82;21687;-65
2022/03/07 05:36:31;;;;;;;23.20;16.05;;;;;;;-3.97;83.52;100132.52;1708051;82;21224;-65
2022/03/07 05:38:58;;;;;;;23.12;14.85;;;;;;;-3.95;83.50;100146.16;1714758;82;21072;-65
2022/03/07 05:41:25;;;;;;;26.33;19.73;;;;;;;-3.78;83.83;100145.58;1700383;82;20998;-65
2022/03/07 05:43:52;;;;;;;24.35;16.80;;;;;;;-3.40;84.20;100145.80;1705207;82;21093;-65
2022/03/07 05:46:20;;;;;;;25.03;16.50;;;;;;;-2.87;84.52;100135.09;1703724;82;21074;-65
2022/03/07 05:48:47;;;;;;;26.42;16.95;;;;;;;-2.37;84.43;100142.55;1704007;82;21661;-66
